createdAt,value
2019-01-14T00:00:45.718Z,68.40
2019-01-14T00:03:41.889Z,68.50
2019-01-14T00:06:36.820Z,68.40
2019-01-14T00:09:31.506Z,68.30
2019-01-14T00:12:26.023Z,68.30
2019-01-14T00:15:20.708Z,68.40
2019-01-14T00:18:15.738Z,68.50
2019-01-14T00:21:10.454Z,68.60
2019-01-14T00:24:04.913Z,68.60
2019-01-14T00:27:01.006Z,68.70
2019-01-14T00:29:55.744Z,68.60
2019-01-14T00:32:50.641Z,68.60
2019-01-14T00:35:45.301Z,68.70
2019-01-14T00:38:39.975Z,68.80
2019-01-14T00:41:34.882Z,68.90
2019-01-14T00:44:29.644Z,69.00
2019-01-14T00:47:24.702Z,69.10
2019-01-14T00:50:20.268Z,69.00
2019-01-14T00:53:15.211Z,69.10
2019-01-14T00:56:09.814Z,69.20
2019-01-14T00:59:04.543Z,69.20
2019-01-14T01:01:59.630Z,69.30
2019-01-14T01:04:54.822Z,69.30
2019-01-14T01:07:49.739Z,69.40
2019-01-14T01:10:44.590Z,69.50
2019-01-14T01:13:39.575Z,69.50
2019-01-14T01:16:34.342Z,69.70
2019-01-14T01:19:29.039Z,69.80
2019-01-14T01:22:23.892Z,69.80
2019-01-14T01:25:18.758Z,69.80
2019-01-14T01:28:13.711Z,69.80
2019-01-14T01:31:08.585Z,69.70
2019-01-14T01:34:03.296Z,69.70
2019-01-14T01:36:57.891Z,69.80
2019-01-14T01:39:52.542Z,69.80
2019-01-14T01:42:47.312Z,69.90
2019-01-14T01:45:42.020Z,69.80
2019-01-14T01:48:37.169Z,69.90
2019-01-14T01:51:32.078Z,70.10
2019-01-14T01:54:27.274Z,70.00
2019-01-14T01:57:21.926Z,70.10
2019-01-14T02:00:22.297Z,70.20
2019-01-14T02:03:17.162Z,70.20
2019-01-14T02:06:11.996Z,70.20
2019-01-14T02:09:07.503Z,70.30
2019-01-14T02:12:02.477Z,70.50
2019-01-14T02:14:57.417Z,70.40
2019-01-14T02:17:52.894Z,70.40
2019-01-14T02:20:47.532Z,70.30
2019-01-14T02:23:43.339Z,70.30
2019-01-14T02:26:38.125Z,70.30
2019-01-14T02:29:33.538Z,70.20
2019-01-14T02:32:28.423Z,70.20
2019-01-14T02:35:23.482Z,70.20
2019-01-14T02:38:18.055Z,70.20
2019-01-14T02:41:13.186Z,70.20
2019-01-14T02:44:08.150Z,70.10
2019-01-14T02:47:03.428Z,69.90
2019-01-14T02:49:58.613Z,69.50
2019-01-14T02:52:53.476Z,68.80
2019-01-14T02:55:48.340Z,68.40
2019-01-14T02:58:43.068Z,68.00
2019-01-14T03:01:38.060Z,67.90
2019-01-14T03:04:33.129Z,67.60
2019-01-14T03:07:27.966Z,67.40
2019-01-14T03:10:23.055Z,67.20
2019-01-14T03:13:17.866Z,67.00
2019-01-14T03:16:12.916Z,66.90
2019-01-14T03:19:07.907Z,66.70
2019-01-14T03:22:02.591Z,66.50
2019-01-14T03:24:58.095Z,66.30
2019-01-14T03:27:52.982Z,65.90
2019-01-14T03:30:47.588Z,65.60
2019-01-14T03:33:42.114Z,65.30
2019-01-14T03:36:37.209Z,65.20
2019-01-14T03:39:32.063Z,65.20
2019-01-14T03:42:26.973Z,65.30
2019-01-14T03:45:22.038Z,65.10
2019-01-14T03:48:17.155Z,65.20
2019-01-14T03:51:11.883Z,65.20
2019-01-14T03:54:06.964Z,65.00
2019-01-14T03:57:01.735Z,64.70
2019-01-14T03:59:56.279Z,64.50
2019-01-14T04:02:50.948Z,64.40
2019-01-14T04:05:45.858Z,64.30
2019-01-14T04:08:40.917Z,64.20
2019-01-14T04:11:35.916Z,64.10
2019-01-14T04:14:31.708Z,63.90
2019-01-14T04:17:26.147Z,63.80
2019-01-14T04:20:21.914Z,63.60
2019-01-14T04:23:16.972Z,63.20
2019-01-14T04:26:11.915Z,62.90
2019-01-14T04:29:07.121Z,62.90
2019-01-14T04:32:02.517Z,62.60
2019-01-14T04:34:57.176Z,62.60
2019-01-14T04:37:53.325Z,62.60
2019-01-14T04:40:48.443Z,62.60
2019-01-14T04:43:43.915Z,62.70
2019-01-14T04:46:39.327Z,62.60
2019-01-14T04:49:35.642Z,62.50
2019-01-14T04:52:31.177Z,62.30
2019-01-14T04:55:25.911Z,62.10
2019-01-14T04:58:20.599Z,62.10
2019-01-14T05:01:15.154Z,62.00
2019-01-14T05:04:10.237Z,61.70
2019-01-14T05:07:04.753Z,61.50
2019-01-14T05:09:59.781Z,61.50
2019-01-14T05:12:57.287Z,61.30
2019-01-14T05:15:52.965Z,61.00
2019-01-14T05:18:49.401Z,61.00
2019-01-14T05:21:44.864Z,60.70
2019-01-14T05:24:44.037Z,60.70
2019-01-14T05:27:39.295Z,60.80
2019-01-14T05:30:34.547Z,60.80
2019-01-14T05:33:36.683Z,60.40
2019-01-14T05:36:34.270Z,60.10
2019-01-14T05:39:30.464Z,60.10
2019-01-14T05:42:26.358Z,59.90
2019-01-14T05:45:36.963Z,59.60
2019-01-14T05:48:36.173Z,59.40
2019-01-14T05:51:43.427Z,59.40
2019-01-14T05:54:40.019Z,58.90
2019-01-14T05:57:38.850Z,58.90
2019-01-14T06:00:42.453Z,58.90
2019-01-14T06:03:44.419Z,58.80
2019-01-14T06:06:41.643Z,58.80
2019-01-14T06:09:40.428Z,58.70
2019-01-14T06:12:40.083Z,58.30
2019-01-14T06:15:40.883Z,58.40
2019-01-14T06:18:38.320Z,58.50
2019-01-14T06:21:36.088Z,58.50
2019-01-14T06:24:31.151Z,58.50
2019-01-14T06:27:27.721Z,58.40
2019-01-14T06:30:26.473Z,58.40
2019-01-14T06:33:22.165Z,58.40
2019-01-14T06:36:25.382Z,58.30
2019-01-14T06:39:20.820Z,58.50
2019-01-14T06:42:16.378Z,58.50
2019-01-14T06:45:12.292Z,58.50
2019-01-14T06:48:15.276Z,58.20
2019-01-14T06:51:11.968Z,58.10
2019-01-14T06:54:30.159Z,57.70
2019-01-14T06:57:36.235Z,57.70
2019-01-14T07:01:28.948Z,57.80
2019-01-14T07:04:27.161Z,57.70
2019-01-14T07:07:23.044Z,57.40
2019-01-14T07:10:24.506Z,57.40
2019-01-14T07:13:19.885Z,56.90
2019-01-14T07:16:15.252Z,56.80
2019-01-14T07:19:10.380Z,56.70
2019-01-14T07:22:06.041Z,56.60
2019-01-14T07:25:27.632Z,56.80
2019-01-14T07:28:23.612Z,56.80
2019-01-14T07:31:18.858Z,56.80
2019-01-14T07:34:25.146Z,56.90
2019-01-14T07:37:28.334Z,56.80
2019-01-14T07:40:30.400Z,56.20
2019-01-14T07:43:38.323Z,56.20
2019-01-14T07:46:37.179Z,55.90
2019-01-14T07:49:34.402Z,55.20
2019-01-14T07:52:30.763Z,55.20
2019-01-14T07:55:39.721Z,55.40
2019-01-14T07:59:20.309Z,55.30
2019-01-14T08:02:32.815Z,55.50
2019-01-14T08:05:29.670Z,55.90
2019-01-14T08:08:26.583Z,55.70
2019-01-14T08:11:38.860Z,55.80
2019-01-14T08:14:45.789Z,55.60
2019-01-14T08:17:45.872Z,55.60
2019-01-14T08:20:38.879Z,55.50
2019-01-14T08:23:34.779Z,55.10
2019-01-14T08:26:30.836Z,54.80
2019-01-14T08:29:30.109Z,55.50
2019-01-14T08:32:26.872Z,55.00
2019-01-14T08:35:30.141Z,54.90
2019-01-14T08:38:23.515Z,54.50
2019-01-14T08:41:21.990Z,54.70
2019-01-14T08:44:15.392Z,54.70
2019-01-14T08:47:12.710Z,54.60
2019-01-14T08:50:08.812Z,54.20
2019-01-14T08:53:10.788Z,54.20
2019-01-14T08:56:10.640Z,53.90
2019-01-14T08:59:05.765Z,53.80
2019-01-14T09:06:04.570Z,54.30
2019-01-14T09:09:43.542Z,54.30
2019-01-14T09:12:38.343Z,54.50
2019-01-14T09:15:33.422Z,54.40
2019-01-14T09:18:28.051Z,54.30
2019-01-14T09:21:25.725Z,53.80
2019-01-14T09:24:21.345Z,53.80
2019-01-14T09:27:41.807Z,53.90
2019-01-14T10:02:02.288Z,53.70
2019-01-14T10:04:57.355Z,49.50
2019-01-14T10:07:52.068Z,50.00
2019-01-14T10:10:47.300Z,49.20
2019-01-14T10:13:42.642Z,49.50
2019-01-14T10:16:38.121Z,49.60
2019-01-14T10:19:33.453Z,50.10
2019-01-14T10:22:37.573Z,50.40
2019-01-14T10:25:34.963Z,50.50
2019-01-14T10:28:30.924Z,50.60
2019-01-14T10:31:26.385Z,50.50
2019-01-14T10:34:22.002Z,50.50
2019-01-14T10:37:22.767Z,50.60
2019-01-14T10:40:14.615Z,50.60
2019-01-14T10:43:09.983Z,50.90
2019-01-14T10:46:06.878Z,51.20
2019-01-14T10:49:06.625Z,51.20
2019-01-14T10:52:07.414Z,51.20
2019-01-14T10:55:12.454Z,51.20
2019-01-14T10:58:23.756Z,51.30
2019-01-14T11:01:28.475Z,51.50
2019-01-14T11:04:34.460Z,51.60
2019-01-14T11:07:31.132Z,51.70
2019-01-14T11:10:54.514Z,51.80
2019-01-14T11:14:01.966Z,52.10
2019-01-14T11:17:18.363Z,52.40
2019-01-14T11:20:58.568Z,52.60
2019-01-14T11:24:02.092Z,52.70
2019-01-14T11:27:29.539Z,52.70
2019-01-14T11:30:41.731Z,52.80
2019-01-14T11:33:44.882Z,52.70
2019-01-14T11:36:49.635Z,52.90
2019-01-14T11:39:50.669Z,53.00
2019-01-14T11:42:49.122Z,53.00
2019-01-14T11:45:49.978Z,53.10
2019-01-14T11:53:25.987Z,53.10
2019-01-14T11:56:30.449Z,53.20
2019-01-14T12:00:02.535Z,53.40
2019-01-14T12:03:02.077Z,53.50
2019-01-14T12:05:59.702Z,53.70
2019-01-14T12:09:02.457Z,53.80
2019-01-14T12:12:18.374Z,54.00
2019-01-14T12:15:18.152Z,54.20
2019-01-14T12:18:18.996Z,54.30
2019-01-14T12:21:15.437Z,54.60
2019-01-14T12:24:12.495Z,54.70
2019-01-14T12:27:11.203Z,54.90
2019-01-14T12:30:07.689Z,55.10
2019-01-14T12:33:05.045Z,55.50
2019-01-14T12:36:02.004Z,55.60
2019-01-14T12:38:58.726Z,56.00
2019-01-14T12:41:55.009Z,56.20
2019-01-14T12:44:57.953Z,56.30
2019-01-14T12:47:59.874Z,56.50
2019-01-14T12:51:06.231Z,57.20
2019-01-14T12:54:07.353Z,56.70
2019-01-14T12:57:19.692Z,56.80
2019-01-14T13:00:21.071Z,57.00
2019-01-14T13:03:19.016Z,57.10
2019-01-14T13:06:13.785Z,57.30
2019-01-14T13:09:12.059Z,57.40
2019-01-14T13:12:08.334Z,57.40
2019-01-14T13:15:07.254Z,57.50
2019-01-14T13:18:07.678Z,57.50
2019-01-14T13:21:04.299Z,57.50
2019-01-14T13:23:59.416Z,57.50
2019-01-14T13:26:54.679Z,57.60
2019-01-14T13:29:50.902Z,57.70
2019-01-14T13:32:46.424Z,57.80
2019-01-14T13:35:41.670Z,57.80
2019-01-14T13:38:36.485Z,57.90
2019-01-14T13:41:31.787Z,58.00
2019-01-14T13:44:26.911Z,58.70
2019-01-14T13:47:23.271Z,58.20
2019-01-14T13:50:20.080Z,58.30
2019-01-14T13:53:15.573Z,58.40
2019-01-14T13:56:10.658Z,58.40
2019-01-14T13:59:05.814Z,58.60
2019-01-14T14:02:00.621Z,58.80
2019-01-14T14:04:56.147Z,58.90
2019-01-14T14:07:51.561Z,59.00
2019-01-14T14:10:46.426Z,59.10
2019-01-14T14:13:41.132Z,59.20
2019-01-14T14:16:35.648Z,59.40
2019-01-14T14:19:30.853Z,59.50
2019-01-14T14:22:25.948Z,59.60
2019-01-14T14:25:20.530Z,59.70
2019-01-14T14:28:16.195Z,59.80
2019-01-14T14:31:11.226Z,59.90
2019-01-14T14:34:06.218Z,60.10
2019-01-14T14:37:01.097Z,60.30
2019-01-14T14:39:56.071Z,60.50
2019-01-14T14:42:50.642Z,60.50
2019-01-14T14:45:45.776Z,60.50
2019-01-14T14:48:40.601Z,60.60
2019-01-14T14:51:35.085Z,60.70
2019-01-14T14:54:29.819Z,60.90
2019-01-14T14:57:24.435Z,61.00
2019-01-14T15:00:21.249Z,61.00
2019-01-14T15:03:16.459Z,61.00
2019-01-14T15:06:11.399Z,61.00
2019-01-14T15:09:07.872Z,61.10
2019-01-14T15:12:03.062Z,61.20
2019-01-14T15:14:58.652Z,61.30
2019-01-14T15:17:53.666Z,61.40
2019-01-14T15:20:48.614Z,61.50
2019-01-14T15:23:43.739Z,61.50
2019-01-14T15:26:38.780Z,61.50
2019-01-14T15:29:33.583Z,61.60
2019-01-14T15:32:28.371Z,61.70
2019-01-14T15:35:23.371Z,61.90
2019-01-14T15:38:18.249Z,62.00
2019-01-14T15:41:13.195Z,62.70
2019-01-14T15:44:08.212Z,62.10
2019-01-14T15:47:03.880Z,62.10
2019-01-14T15:49:58.811Z,62.00
2019-01-14T15:52:54.512Z,61.90
2019-01-14T15:55:49.030Z,61.50
2019-01-14T15:58:44.425Z,61.20
2019-01-14T16:01:39.697Z,60.80
2019-01-14T16:04:34.874Z,60.40
2019-01-14T16:07:29.762Z,60.00
2019-01-14T16:10:26.957Z,59.60
2019-01-14T16:13:22.290Z,59.20
2019-01-14T16:16:17.563Z,59.00
2019-01-14T16:19:12.480Z,58.70
2019-01-14T16:22:08.034Z,58.50
2019-01-14T16:25:03.263Z,58.40
2019-01-14T16:27:57.986Z,58.10
2019-01-14T16:30:53.253Z,57.70
2019-01-14T16:33:47.941Z,57.30
2019-01-14T16:36:42.726Z,56.90
2019-01-14T16:39:37.382Z,56.50
2019-01-14T16:42:32.477Z,56.00
2019-01-14T16:45:29.347Z,55.70
2019-01-14T16:48:24.420Z,55.40
2019-01-14T16:51:19.548Z,55.00
2019-01-14T16:54:14.115Z,54.90
2019-01-14T16:57:08.966Z,54.70
2019-01-14T17:00:04.007Z,54.30
2019-01-14T17:02:59.144Z,54.00
2019-01-14T17:05:54.011Z,54.30
2019-01-14T17:08:48.961Z,53.30
2019-01-14T17:11:43.735Z,52.90
2019-01-14T17:14:38.626Z,52.80
2019-01-14T17:17:33.457Z,52.30
2019-01-14T17:20:28.458Z,52.10
2019-01-14T17:23:23.483Z,51.90
2019-01-14T17:26:18.576Z,51.40
2019-01-14T17:29:13.478Z,51.10
2019-01-14T17:32:08.226Z,50.90
2019-01-14T17:35:02.909Z,50.60
2019-01-14T17:37:57.864Z,50.40
2019-01-14T17:40:52.451Z,50.30
2019-01-14T17:43:47.154Z,50.10
2019-01-14T17:46:42.003Z,49.80
2019-01-14T17:49:36.859Z,49.50
2019-01-14T17:52:31.711Z,49.40
2019-01-14T17:55:26.765Z,49.20
2019-01-14T17:58:21.659Z,49.10
2019-01-14T18:01:16.491Z,49.00
2019-01-14T18:04:11.312Z,48.70
2019-01-14T18:07:06.585Z,48.70
2019-01-14T18:10:01.469Z,48.60
2019-01-14T18:12:56.324Z,48.30
2019-01-14T18:15:51.638Z,48.00
2019-01-14T18:18:46.510Z,47.60
2019-01-14T18:21:41.390Z,47.40
2019-01-14T18:24:36.366Z,47.00
2019-01-14T18:27:31.192Z,46.80
2019-01-14T18:30:26.794Z,46.50
2019-01-14T18:33:21.706Z,46.40
2019-01-14T18:36:17.121Z,46.40
2019-01-14T18:39:13.012Z,46.40
2019-01-14T18:42:08.146Z,46.40
2019-01-14T18:45:02.893Z,46.30
2019-01-14T18:47:57.789Z,46.30
2019-01-14T18:50:52.911Z,47.00
2019-01-14T18:53:47.701Z,46.50
2019-01-14T18:56:42.396Z,46.40
2019-01-14T18:59:36.912Z,46.40
2019-01-14T19:02:31.681Z,46.40
2019-01-14T19:05:26.749Z,46.20
2019-01-14T19:08:21.878Z,46.10
2019-01-14T19:11:16.904Z,46.10
2019-01-14T19:14:11.589Z,46.10
2019-01-14T19:17:06.148Z,46.10
2019-01-14T19:20:00.808Z,46.10
2019-01-14T19:22:55.894Z,46.00
2019-01-14T19:25:50.499Z,46.10
2019-01-14T19:28:45.290Z,46.20
2019-01-14T19:31:40.154Z,46.10
2019-01-14T19:34:35.084Z,46.10
2019-01-14T19:37:29.762Z,46.10
2019-01-14T19:40:25.263Z,46.00
2019-01-14T19:43:20.140Z,45.90
2019-01-14T19:46:14.982Z,45.90
2019-01-14T19:49:10.024Z,45.70
2019-01-14T19:52:04.839Z,45.80
2019-01-14T19:54:59.543Z,45.90
2019-01-14T19:57:54.307Z,45.90
2019-01-14T20:00:48.828Z,46.00
2019-01-14T20:03:44.335Z,46.20
2019-01-14T20:06:38.907Z,46.10
2019-01-14T20:22:31.742Z,45.70
2019-01-14T20:25:26.502Z,45.20
2019-01-14T20:28:21.073Z,45.40
2019-01-14T20:31:15.882Z,45.40
2019-01-14T20:34:10.873Z,45.60
2019-01-14T20:37:05.748Z,45.80
2019-01-14T20:40:00.335Z,46.10
2019-01-14T20:42:55.444Z,46.10
2019-01-14T20:45:50.273Z,46.20
2019-01-14T20:48:45.084Z,46.30
2019-01-14T20:51:40.206Z,46.30
2019-01-14T20:54:35.265Z,46.50
2019-01-14T20:57:30.276Z,46.70
2019-01-14T21:00:27.809Z,46.80
2019-01-14T21:03:22.552Z,46.90
2019-01-14T21:06:17.252Z,47.10
2019-01-14T21:09:12.486Z,47.10
2019-01-14T21:12:07.383Z,47.20
2019-01-14T21:15:02.069Z,47.30
2019-01-14T21:17:57.204Z,47.40
2019-01-14T21:20:51.895Z,48.20
2019-01-14T21:23:46.685Z,47.70
2019-01-14T21:26:41.895Z,47.90
2019-01-14T21:29:36.784Z,47.80
2019-01-14T21:32:32.057Z,47.90
2019-01-14T21:35:26.871Z,48.10
2019-01-14T21:38:21.951Z,48.20
2019-01-14T21:41:16.890Z,48.30
2019-01-14T21:44:11.702Z,48.40
2019-01-14T21:47:06.756Z,48.40
2019-01-14T21:50:02.297Z,48.50
2019-01-14T21:52:57.027Z,48.60
2019-01-14T21:55:51.745Z,48.50
2019-01-14T21:58:47.022Z,48.40
2019-01-14T22:01:42.161Z,48.50
2019-01-14T22:04:37.657Z,48.60
2019-01-14T22:07:33.930Z,48.60
2019-01-14T22:10:30.612Z,48.70
2019-01-14T22:13:26.320Z,48.70
2019-01-14T22:16:21.589Z,48.50
2019-01-14T22:19:16.520Z,48.30
2019-01-14T22:22:11.876Z,48.10
2019-01-14T22:25:07.441Z,48.10
2019-01-14T22:28:02.434Z,48.00
2019-01-14T22:30:57.997Z,47.90
2019-01-14T22:33:52.717Z,47.90
2019-01-14T22:36:47.482Z,47.70
2019-01-14T22:39:42.355Z,47.50
2019-01-14T22:42:37.219Z,47.30
2019-01-14T22:45:32.009Z,47.10
2019-01-14T22:48:26.914Z,47.00
2019-01-14T22:51:21.987Z,47.10
2019-01-14T22:54:17.271Z,47.00
2019-01-14T22:57:12.234Z,46.80
2019-01-14T23:00:08.295Z,46.80
2019-01-14T23:03:03.510Z,46.80
2019-01-14T23:05:58.995Z,46.70
2019-01-14T23:08:53.955Z,46.80
2019-01-14T23:11:52.970Z,46.90
2019-01-14T23:14:43.820Z,46.80
2019-01-14T23:17:38.706Z,46.90
2019-01-14T23:20:33.742Z,46.90
2019-01-14T23:23:29.495Z,47.00
2019-01-14T23:26:24.448Z,47.10
2019-01-14T23:29:19.298Z,47.10
2019-01-14T23:32:14.105Z,47.00
2019-01-14T23:35:09.439Z,47.20
2019-01-14T23:38:04.549Z,47.20
2019-01-14T23:40:59.467Z,47.30
2019-01-14T23:43:54.636Z,47.30
2019-01-14T23:46:50.023Z,47.30
2019-01-14T23:49:45.347Z,47.30
2019-01-14T23:52:39.986Z,47.30
2019-01-14T23:55:34.770Z,47.40
2019-01-14T23:58:29.532Z,47.40
